createdAt,value
2023-03-26T00:00:56.440Z,98926.69
2023-03-26T00:01:33.694Z,98910.50
2023-03-26T00:02:14.617Z,98926.75
2023-03-26T00:02:55.525Z,98923.72
2023-03-26T00:03:35.612Z,98913.88
2023-03-26T00:04:15.432Z,98918.13
2023-03-26T00:04:55.515Z,98913.28
2023-03-26T00:05:35.481Z,98928.06
2023-03-26T00:06:19.463Z,98904.72
2023-03-26T00:06:54.127Z,98930.78
2023-03-26T00:07:41.440Z,98926.75
2023-03-26T00:08:16.560Z,98910.09
2023-03-26T00:09:05.412Z,98923.72
2023-03-26T00:09:39.670Z,98906.88
2023-03-26T00:10:27.428Z,98928.53
2023-03-26T00:11:01.510Z,98915.69
2023-03-26T00:11:42.452Z,98927.16
2023-03-26T00:12:22.548Z,98923.81
2023-03-26T00:13:02.394Z,98925.84
2023-03-26T00:13:43.946Z,98913.47
2023-03-26T00:14:25.407Z,98919.72
2023-03-26T00:15:05.554Z,98922.06
2023-03-26T00:15:47.426Z,98918.88
2023-03-26T00:16:27.819Z,98917.75
2023-03-26T00:17:08.425Z,98919.38
2023-03-26T00:17:51.910Z,98902.25
2023-03-26T00:18:37.414Z,98908.38
2023-03-26T00:19:18.522Z,98912.19
2023-03-26T00:20:00.412Z,98919.28
2023-03-26T00:20:41.449Z,98907.97
2023-03-26T00:21:27.389Z,98919.81
2023-03-26T00:22:07.545Z,98914.91
2023-03-26T00:22:48.422Z,98907.56
2023-03-26T00:23:28.775Z,98911.13
2023-03-26T00:24:13.391Z,98920.63
2023-03-26T00:24:53.571Z,98901.53
2023-03-26T00:25:34.416Z,98896.25
2023-03-26T00:26:15.613Z,98902.59
2023-03-26T00:26:59.397Z,98899.50
2023-03-26T00:27:40.501Z,98916.13
2023-03-26T00:28:23.404Z,98898.38
2023-03-26T00:29:04.575Z,98893.16
2023-03-26T00:29:46.396Z,98892.81
2023-03-26T00:30:27.760Z,98905.66
2023-03-26T00:31:11.456Z,98916.78
2023-03-26T00:31:51.504Z,98913.66
2023-03-26T00:32:34.407Z,98889.28
2023-03-26T00:33:17.279Z,98897.91
2023-03-26T00:34:02.419Z,98907.84
2023-03-26T00:34:42.536Z,98897.31
2023-03-26T00:35:23.411Z,98913.22
2023-03-26T00:36:06.533Z,98905.03
2023-03-26T00:36:48.396Z,98909.44
2023-03-26T00:37:33.781Z,98881.88
2023-03-26T00:38:14.420Z,98909.44
2023-03-26T00:38:54.560Z,98905.03
2023-03-26T00:39:36.459Z,98909.94
2023-03-26T00:40:17.522Z,98885.94
2023-03-26T00:40:58.368Z,98913.56
2023-03-26T00:41:42.973Z,98888.00
2023-03-26T00:42:24.378Z,98887.28
2023-03-26T00:43:19.330Z,98882.53
2023-03-26T00:44:03.398Z,98881.88
2023-03-26T00:44:50.403Z,98892.25
2023-03-26T00:45:44.418Z,98906.75
2023-03-26T00:46:40.496Z,98904.38
2023-03-26T00:47:35.372Z,98903.22
2023-03-26T00:48:44.136Z,98895.66
2023-03-26T00:49:39.392Z,98898.56
2023-03-26T00:50:22.390Z,98896.22
2023-03-26T00:51:03.509Z,98900.91
2023-03-26T00:51:45.444Z,98893.19
2023-03-26T00:52:28.549Z,98879.50
2023-03-26T00:53:09.382Z,98879.66
2023-03-26T00:53:52.529Z,98893.72
2023-03-26T00:54:33.387Z,98898.91
2023-03-26T00:55:15.999Z,98881.34
2023-03-26T00:55:57.423Z,98900.59
2023-03-26T00:56:38.656Z,98877.00
2023-03-26T00:57:32.677Z,98881.34
2023-03-26T00:58:16.454Z,98882.41
2023-03-26T00:58:57.366Z,98895.63
2023-03-26T00:59:37.477Z,98871.31
2023-03-26T01:00:23.383Z,98901.53
2023-03-26T01:01:13.426Z,98883.56
2023-03-26T01:02:07.392Z,98894.97
2023-03-26T01:03:02.454Z,98892.31
2023-03-26T01:04:08.631Z,98887.25
2023-03-26T01:05:13.394Z,98878.00
2023-03-26T01:06:20.403Z,98889.38
2023-03-26T01:07:28.377Z,98896.84
2023-03-26T01:09:06.385Z,98887.56
2023-03-26T01:10:02.367Z,98897.41
2023-03-26T01:10:59.402Z,98898.78
2023-03-26T01:11:42.367Z,98866.16
2023-03-26T01:12:28.468Z,98884.28
2023-03-26T01:13:09.349Z,98894.72
2023-03-26T01:13:56.491Z,98876.78
2023-03-26T01:14:37.368Z,98892.84
2023-03-26T01:15:17.460Z,98886.59
2023-03-26T01:15:59.397Z,98880.19
2023-03-26T01:16:53.385Z,98899.41
2023-03-26T01:17:49.386Z,98899.94
2023-03-26T01:18:47.366Z,98895.31
2023-03-26T01:20:03.387Z,98878.38
2023-03-26T01:20:59.423Z,98891.63
2023-03-26T01:21:53.422Z,98889.84
2023-03-26T01:22:48.380Z,98895.66
2023-03-26T01:23:55.347Z,98876.78
2023-03-26T01:24:49.687Z,98895.91
2023-03-26T01:25:48.322Z,98872.56
2023-03-26T01:26:54.348Z,98878.53
2023-03-26T01:27:58.376Z,98867.06
2023-03-26T01:28:53.352Z,98852.84
2023-03-26T01:30:13.342Z,98882.25
2023-03-26T01:31:23.321Z,98886.50
2023-03-26T01:32:50.515Z,98888.00
2023-03-26T01:33:50.823Z,98879.63
2023-03-26T01:34:56.358Z,98884.34
2023-03-26T01:35:32.483Z,98879.16
2023-03-26T01:36:53.407Z,98889.63
2023-03-26T01:37:35.410Z,98862.72
2023-03-26T01:38:25.384Z,98872.84
2023-03-26T01:39:25.234Z,98860.72
2023-03-26T01:40:30.449Z,98885.75
2023-03-26T01:41:20.543Z,98861.56
2023-03-26T01:42:07.351Z,98856.97
2023-03-26T01:42:55.486Z,98863.53
2023-03-26T01:44:23.379Z,98885.03
2023-03-26T01:45:24.659Z,98879.44
2023-03-26T01:46:08.355Z,98882.16
2023-03-26T01:46:48.481Z,98882.50
2023-03-26T01:47:29.378Z,98894.81
2023-03-26T01:48:09.468Z,98886.91
2023-03-26T01:48:52.327Z,98886.72
2023-03-26T01:49:42.343Z,98897.41
2023-03-26T01:50:36.341Z,98873.72
2023-03-26T01:51:48.326Z,98883.53
2023-03-26T01:52:43.304Z,98886.91
2023-03-26T01:53:37.352Z,98874.41
2023-03-26T01:54:34.323Z,98868.25
2023-03-26T01:55:18.371Z,98886.41
2023-03-26T01:56:18.457Z,98888.94
2023-03-26T01:57:47.299Z,98891.97
2023-03-26T01:58:42.422Z,98869.88
2023-03-26T01:59:48.349Z,98892.31
2023-03-26T02:01:43.408Z,98891.00
2023-03-26T02:03:32.375Z,98881.50
2023-03-26T02:04:53.463Z,98883.03
2023-03-26T02:06:00.319Z,98885.78
2023-03-26T02:07:00.346Z,98880.63
2023-03-26T02:08:27.307Z,98885.28
2023-03-26T02:09:25.309Z,98886.56
2023-03-26T02:10:34.295Z,98887.00
2023-03-26T02:11:35.403Z,98878.44
2023-03-26T02:12:23.316Z,98875.59
2023-03-26T02:12:57.398Z,98882.41
2023-03-26T02:13:46.362Z,98892.59
2023-03-26T02:14:20.404Z,98875.84
2023-03-26T02:15:09.278Z,98872.88
2023-03-26T02:15:43.421Z,98876.63
2023-03-26T02:16:30.303Z,98884.47
2023-03-26T02:17:04.365Z,98880.81
2023-03-26T02:17:48.365Z,98881.28
2023-03-26T02:18:36.415Z,98880.81
2023-03-26T02:19:22.302Z,98890.53
2023-03-26T02:20:06.195Z,98874.69
2023-03-26T02:20:46.280Z,98884.53
2023-03-26T02:21:29.428Z,98861.88
2023-03-26T02:22:10.281Z,98877.41
2023-03-26T02:22:58.310Z,98888.94
2023-03-26T02:24:09.316Z,98883.88
2023-03-26T02:25:03.330Z,98884.22
2023-03-26T02:25:57.312Z,98881.13
2023-03-26T02:26:51.306Z,98882.66
2023-03-26T02:27:45.307Z,98873.56
2023-03-26T02:28:26.323Z,98878.25
2023-03-26T02:29:06.493Z,98865.97
2023-03-26T02:29:47.292Z,98864.00
2023-03-26T02:30:33.637Z,98881.75
2023-03-26T02:31:16.321Z,98886.94
2023-03-26T02:31:56.478Z,98873.50
2023-03-26T02:32:36.351Z,98871.94
2023-03-26T02:33:17.259Z,98864.06
2023-03-26T02:33:57.319Z,98872.88
2023-03-26T02:34:38.607Z,98887.03
2023-03-26T02:35:19.372Z,98871.06
2023-03-26T02:36:02.044Z,98877.81
2023-03-26T02:36:42.287Z,98870.56
2023-03-26T02:37:22.383Z,98857.28
2023-03-26T02:38:02.276Z,98865.94
2023-03-26T02:38:42.373Z,98877.28
2023-03-26T02:39:22.373Z,98866.97
2023-03-26T02:40:02.415Z,98862.34
2023-03-26T02:40:42.272Z,98869.47
2023-03-26T02:41:22.395Z,98859.66
2023-03-26T02:42:02.248Z,98873.00
2023-03-26T02:42:42.380Z,98860.84
2023-03-26T02:43:23.290Z,98866.69
2023-03-26T02:44:03.419Z,98866.22
2023-03-26T02:44:46.304Z,98847.06
2023-03-26T02:45:26.447Z,98861.97
2023-03-26T02:46:07.313Z,98837.97
2023-03-26T02:46:47.357Z,98869.75
2023-03-26T02:47:27.270Z,98870.06
2023-03-26T02:48:08.061Z,98842.78
2023-03-26T02:48:49.285Z,98849.22
2023-03-26T02:49:29.354Z,98866.47
2023-03-26T02:50:11.289Z,98848.25
2023-03-26T02:50:54.256Z,98866.47
2023-03-26T02:51:35.250Z,98864.25
2023-03-26T02:52:18.500Z,98849.75
2023-03-26T02:52:58.247Z,98867.81
2023-03-26T02:53:39.423Z,98852.09
2023-03-26T02:54:19.292Z,98870.16
2023-03-26T02:54:59.367Z,98846.69
2023-03-26T02:55:39.282Z,98859.53
2023-03-26T02:56:19.356Z,98853.28
2023-03-26T02:56:59.322Z,98858.06
2023-03-26T02:57:39.392Z,98836.25
2023-03-26T02:58:24.285Z,98870.56
2023-03-26T02:59:04.372Z,98841.31
2023-03-26T02:59:45.256Z,98862.13
2023-03-26T03:00:26.332Z,98850.59
2023-03-26T03:01:09.323Z,98863.44
2023-03-26T03:01:49.367Z,98858.34
2023-03-26T03:02:31.359Z,98863.94
2023-03-26T03:03:11.378Z,98810.31
2023-03-26T03:03:54.252Z,98853.72
2023-03-26T03:04:34.319Z,98830.41
2023-03-26T03:05:15.243Z,98817.19
2023-03-26T03:05:55.719Z,98837.09
2023-03-26T03:06:37.277Z,98826.97
2023-03-26T03:07:17.375Z,98850.59
2023-03-26T03:07:58.266Z,98857.22
2023-03-26T03:08:38.357Z,98856.25
2023-03-26T03:09:19.231Z,98860.09
2023-03-26T03:10:02.341Z,98852.28
2023-03-26T03:10:44.264Z,98842.13
2023-03-26T03:11:26.433Z,98853.69
2023-03-26T03:12:07.304Z,98856.69
2023-03-26T03:12:48.396Z,98853.13
2023-03-26T03:13:29.281Z,98862.06
2023-03-26T03:14:10.484Z,98862.31
2023-03-26T03:14:51.238Z,98854.03
2023-03-26T03:15:32.352Z,98855.41
2023-03-26T03:16:13.263Z,98845.09
2023-03-26T03:16:53.921Z,98860.94
2023-03-26T03:17:34.253Z,98844.81
2023-03-26T03:18:14.344Z,98857.69
2023-03-26T03:19:00.255Z,98861.28
2023-03-26T03:19:40.355Z,98842.53
2023-03-26T03:20:21.231Z,98866.19
2023-03-26T03:21:01.436Z,98854.19
2023-03-26T03:21:42.223Z,98843.84
2023-03-26T03:22:22.435Z,98839.16
2023-03-26T03:23:03.283Z,98843.19
2023-03-26T03:23:43.316Z,98862.44
2023-03-26T03:24:25.234Z,98843.19
2023-03-26T03:25:05.355Z,98854.56
2023-03-26T03:25:47.236Z,98848.53
2023-03-26T03:26:29.954Z,98859.63
2023-03-26T03:27:11.228Z,98855.28
2023-03-26T03:28:06.245Z,98840.59
2023-03-26T03:29:01.230Z,98854.34
2023-03-26T03:29:55.211Z,98859.00
2023-03-26T03:30:49.249Z,98840.09
2023-03-26T03:31:43.219Z,98866.78
2023-03-26T03:32:37.246Z,98835.34
2023-03-26T03:33:27.249Z,98866.63
2023-03-26T03:34:01.351Z,98859.25
2023-03-26T03:34:49.228Z,98837.78
2023-03-26T03:35:23.381Z,98859.06
2023-03-26T03:36:20.674Z,98847.06
2023-03-26T03:36:55.340Z,98855.94
2023-03-26T03:37:42.223Z,98847.47
2023-03-26T03:38:17.331Z,98833.31
2023-03-26T03:38:58.246Z,98865.06
2023-03-26T03:39:52.208Z,98837.69
2023-03-26T03:40:46.220Z,98831.75
2023-03-26T03:41:40.204Z,98863.16
2023-03-26T03:42:36.207Z,98862.81
2023-03-26T03:43:30.204Z,98838.06
2023-03-26T03:44:17.252Z,98839.66
2023-03-26T03:44:51.385Z,98852.78
2023-03-26T03:45:38.207Z,98876.16
2023-03-26T03:46:12.365Z,98861.16
2023-03-26T03:47:02.209Z,98829.78
2023-03-26T03:47:36.393Z,98833.34
2023-03-26T03:48:25.246Z,98839.84
2023-03-26T03:48:59.277Z,98855.53
2023-03-26T03:49:40.234Z,98841.16
2023-03-26T03:50:20.485Z,98867.47
2023-03-26T03:51:02.234Z,98831.53
2023-03-26T03:51:42.466Z,98838.25
2023-03-26T03:52:24.202Z,98853.13
2023-03-26T03:53:05.648Z,98845.59
2023-03-26T03:53:47.199Z,98841.28
2023-03-26T03:54:28.283Z,98829.28
2023-03-26T03:55:09.213Z,98845.06
2023-03-26T03:55:53.291Z,98842.88
2023-03-26T03:56:33.196Z,98862.31
2023-03-26T03:57:13.990Z,98844.75
2023-03-26T03:57:54.222Z,98844.75
2023-03-26T03:58:34.580Z,98847.53
2023-03-26T03:59:15.228Z,98833.97
2023-03-26T03:59:58.431Z,98862.72
2023-03-26T04:00:39.222Z,98851.47
2023-03-26T04:01:22.598Z,98854.22
2023-03-26T04:02:03.212Z,98859.25
2023-03-26T04:02:46.160Z,98855.34
2023-03-26T04:03:33.741Z,98862.59
2023-03-26T04:04:14.338Z,98867.81
2023-03-26T04:04:56.193Z,98861.59
2023-03-26T04:05:36.447Z,98827.38
2023-03-26T04:06:17.217Z,98842.28
2023-03-26T04:06:58.271Z,98849.19
2023-03-26T04:07:39.202Z,98862.94
2023-03-26T04:08:19.313Z,98850.06
2023-03-26T04:09:00.179Z,98849.66
2023-03-26T04:09:40.284Z,98847.44
2023-03-26T04:10:22.213Z,98853.75
2023-03-26T04:11:02.346Z,98855.13
2023-03-26T04:11:43.206Z,98861.88
2023-03-26T04:12:23.290Z,98856.75
2023-03-26T04:13:04.191Z,98854.16
2023-03-26T04:13:44.440Z,98847.72
2023-03-26T04:14:24.163Z,98852.47
2023-03-26T04:15:05.456Z,98857.34
2023-03-26T04:15:46.192Z,98859.16
2023-03-26T04:16:26.287Z,98829.75
2023-03-26T04:17:07.218Z,98823.53
2023-03-26T04:17:47.458Z,98858.47
2023-03-26T04:18:29.189Z,98867.16
2023-03-26T04:19:09.297Z,98853.66
2023-03-26T04:19:50.177Z,98872.78
2023-03-26T04:20:30.271Z,98859.88
2023-03-26T04:21:14.167Z,98842.63
2023-03-26T04:21:54.487Z,98864.78
2023-03-26T04:22:41.187Z,98871.97
2023-03-26T04:23:23.340Z,98848.47
2023-03-26T04:24:04.312Z,98857.03
2023-03-26T04:24:44.286Z,98853.66
2023-03-26T04:25:25.171Z,98870.88
2023-03-26T04:26:10.498Z,98866.75
2023-03-26T04:26:51.189Z,98854.44
2023-03-26T04:27:37.312Z,98873.09
2023-03-26T04:28:48.231Z,98875.88
2023-03-26T04:29:30.598Z,98858.75
2023-03-26T04:30:13.214Z,98831.69
2023-03-26T04:30:54.529Z,98863.13
2023-03-26T04:31:38.202Z,98832.72
2023-03-26T04:32:40.377Z,98854.03
2023-03-26T04:33:24.166Z,98826.59
2023-03-26T04:34:21.191Z,98872.56
2023-03-26T04:34:55.423Z,98866.50
2023-03-26T04:35:42.214Z,98875.31
2023-03-26T04:36:16.287Z,98879.53
2023-03-26T04:37:03.171Z,98861.69
2023-03-26T04:37:41.368Z,98850.56
2023-03-26T04:38:29.160Z,98848.09
2023-03-26T04:39:05.254Z,98864.16
2023-03-26T04:39:46.205Z,98853.75
2023-03-26T04:40:30.566Z,98865.06
2023-03-26T04:41:14.160Z,98852.69
2023-03-26T04:41:55.226Z,98845.16
2023-03-26T04:42:36.154Z,98846.19
2023-03-26T04:43:21.248Z,98868.44
2023-03-26T04:44:03.163Z,98861.34
2023-03-26T04:44:43.239Z,98868.81
2023-03-26T04:45:29.188Z,98845.06
2023-03-26T04:46:10.613Z,98861.34
2023-03-26T04:46:51.197Z,98855.34
2023-03-26T04:47:31.507Z,98853.06
2023-03-26T04:48:14.157Z,98850.94
2023-03-26T04:49:01.586Z,98848.22
2023-03-26T04:49:41.169Z,98839.38
2023-03-26T04:50:21.333Z,98844.56
2023-03-26T04:51:01.191Z,98841.94
2023-03-26T04:51:46.602Z,98868.03
2023-03-26T04:52:27.162Z,98846.25
2023-03-26T04:53:07.247Z,98856.75
2023-03-26T04:53:47.139Z,98852.06
2023-03-26T04:54:29.228Z,98849.31
2023-03-26T04:55:10.131Z,98856.38
2023-03-26T04:56:11.193Z,98866.19
2023-03-26T04:57:14.201Z,98862.53
2023-03-26T04:58:12.155Z,98851.13
2023-03-26T04:59:06.165Z,98840.44
2023-03-26T05:00:00.173Z,98843.28
2023-03-26T05:00:57.231Z,98840.53
2023-03-26T05:01:37.188Z,98866.44
2023-03-26T05:02:18.857Z,98869.06
2023-03-26T05:03:02.199Z,98839.69
2023-03-26T05:03:42.251Z,98868.31
2023-03-26T05:04:23.221Z,98855.56
2023-03-26T05:05:04.180Z,98862.31
2023-03-26T05:05:45.148Z,98869.16
2023-03-26T05:06:25.892Z,98866.38
2023-03-26T05:07:07.133Z,98865.69
2023-03-26T05:07:47.260Z,98858.91
2023-03-26T05:08:27.110Z,98863.38
2023-03-26T05:09:10.592Z,98841.28
2023-03-26T05:09:50.129Z,98865.38
2023-03-26T05:10:30.279Z,98842.22
2023-03-26T05:11:14.202Z,98864.16
2023-03-26T05:11:54.251Z,98873.56
2023-03-26T05:12:34.135Z,98873.19
2023-03-26T05:13:14.257Z,98857.72
2023-03-26T05:13:54.111Z,98835.59
2023-03-26T05:14:36.090Z,98850.94
2023-03-26T05:15:19.143Z,98861.16
2023-03-26T05:15:59.249Z,98846.13
2023-03-26T05:16:40.173Z,98841.19
2023-03-26T05:17:22.283Z,98853.28
2023-03-26T05:18:02.200Z,98836.94
2023-03-26T05:18:42.209Z,98871.19
2023-03-26T05:19:23.111Z,98862.84
2023-03-26T05:20:04.413Z,98849.56
2023-03-26T05:20:45.118Z,98872.25
2023-03-26T05:21:25.339Z,98843.91
2023-03-26T05:22:06.167Z,98868.28
2023-03-26T05:22:46.227Z,98866.88
2023-03-26T05:23:27.170Z,98853.84
2023-03-26T05:24:07.675Z,98862.75
2023-03-26T05:24:48.104Z,98865.94
2023-03-26T05:25:28.240Z,98850.41
2023-03-26T05:26:08.133Z,98843.59
2023-03-26T05:26:48.207Z,98874.91
2023-03-26T05:27:29.095Z,98872.63
2023-03-26T05:28:10.622Z,98869.84
2023-03-26T05:28:50.141Z,98853.84
2023-03-26T05:29:33.242Z,98857.47
2023-03-26T05:30:15.130Z,98853.66
2023-03-26T05:30:55.402Z,98840.44
2023-03-26T05:31:39.154Z,98837.31
2023-03-26T05:32:20.196Z,98849.78
2023-03-26T05:33:00.230Z,98872.41
2023-03-26T05:33:40.263Z,98869.69
2023-03-26T05:34:21.131Z,98855.16
2023-03-26T05:35:01.696Z,98867.72
2023-03-26T05:35:43.153Z,98872.50
2023-03-26T05:36:24.276Z,98861.25
2023-03-26T05:37:04.103Z,98848.47
2023-03-26T05:37:45.136Z,98853.47
2023-03-26T05:38:25.094Z,98861.31
2023-03-26T05:39:05.205Z,98866.97
2023-03-26T05:39:46.157Z,98858.78
2023-03-26T05:40:27.203Z,98857.31
2023-03-26T05:41:10.145Z,98861.56
2023-03-26T05:41:50.230Z,98857.63
2023-03-26T05:42:31.107Z,98846.88
2023-03-26T05:43:11.449Z,98866.16
2023-03-26T05:43:54.097Z,98848.47
2023-03-26T05:44:34.307Z,98870.03
2023-03-26T05:45:17.173Z,98870.59
2023-03-26T05:45:59.199Z,98871.88
2023-03-26T05:46:39.074Z,98853.88
2023-03-26T05:47:19.236Z,98874.06
2023-03-26T05:48:01.188Z,98900.78
2023-03-26T05:48:41.200Z,98893.97
2023-03-26T05:49:22.110Z,98902.50
2023-03-26T05:50:02.193Z,98891.53
2023-03-26T05:50:42.098Z,98872.97
2023-03-26T05:51:23.461Z,98907.47
2023-03-26T05:52:04.085Z,98890.69
2023-03-26T05:52:45.534Z,98890.63
2023-03-26T05:53:27.099Z,98902.50
2023-03-26T05:54:07.155Z,98910.69
2023-03-26T05:54:49.081Z,98871.91
2023-03-26T05:55:29.236Z,98892.97
2023-03-26T05:56:11.127Z,98878.22
2023-03-26T05:56:51.287Z,98865.22
2023-03-26T05:57:35.075Z,98883.44
2023-03-26T05:58:15.441Z,98891.59
2023-03-26T05:58:55.088Z,98878.22
2023-03-26T05:59:35.285Z,98863.75
2023-03-26T06:00:18.067Z,98888.38
2023-03-26T06:01:26.239Z,98912.03
2023-03-26T06:02:46.220Z,98903.88
2023-03-26T06:03:23.035Z,98897.41
2023-03-26T06:04:10.141Z,98882.13
2023-03-26T06:04:45.772Z,98901.81
2023-03-26T06:05:33.051Z,98881.81
2023-03-26T06:06:07.155Z,98886.97
2023-03-26T06:06:48.077Z,98881.47
2023-03-26T06:07:28.182Z,98899.34
2023-03-26T06:08:09.078Z,98892.31
2023-03-26T06:09:01.394Z,98887.56
2023-03-26T06:09:45.111Z,98885.19
2023-03-26T06:10:25.400Z,98882.50
2023-03-26T06:11:11.065Z,98879.53
2023-03-26T06:11:58.118Z,98875.78
2023-03-26T06:12:52.169Z,98859.13
2023-03-26T06:13:46.068Z,98885.72
2023-03-26T06:14:40.076Z,98884.97
2023-03-26T06:15:34.090Z,98887.09
2023-03-26T06:16:29.162Z,98879.97
2023-03-26T06:17:17.092Z,98870.13
2023-03-26T06:17:51.183Z,98862.19
2023-03-26T06:18:38.058Z,98876.53
2023-03-26T06:19:12.173Z,98888.91
2023-03-26T06:19:59.074Z,98877.06
2023-03-26T06:20:33.217Z,98882.56
2023-03-26T06:21:20.087Z,98892.13
2023-03-26T06:21:54.153Z,98857.28
2023-03-26T06:22:41.090Z,98887.16
2023-03-26T06:23:15.302Z,98894.53
2023-03-26T06:24:03.058Z,98876.47
2023-03-26T06:24:37.157Z,98882.41
2023-03-26T06:25:24.035Z,98890.31
2023-03-26T06:26:05.113Z,98867.16
2023-03-26T06:26:45.089Z,98869.19
2023-03-26T06:27:25.287Z,98904.31
2023-03-26T06:28:05.079Z,98866.44
2023-03-26T06:28:45.206Z,98893.19
2023-03-26T06:29:26.041Z,98899.75
2023-03-26T06:30:28.047Z,98899.97
2023-03-26T06:31:24.074Z,98874.75
2023-03-26T06:32:20.390Z,98888.13
2023-03-26T06:33:15.091Z,98908.16
2023-03-26T06:34:09.101Z,98888.13
2023-03-26T06:35:03.062Z,98874.91
2023-03-26T06:35:58.067Z,98869.59
2023-03-26T06:36:52.024Z,98876.91
2023-03-26T06:37:46.036Z,98870.66
2023-03-26T06:38:33.063Z,98895.31
2023-03-26T06:39:07.588Z,98889.16
2023-03-26T06:39:55.043Z,98890.38
2023-03-26T06:40:29.273Z,98887.91
2023-03-26T06:41:16.042Z,98887.56
2023-03-26T06:41:50.323Z,98864.56
2023-03-26T06:43:08.109Z,98884.38
2023-03-26T06:43:40.088Z,98891.63
2023-03-26T06:44:34.053Z,98892.44
2023-03-26T06:45:28.037Z,98874.31
2023-03-26T06:46:23.121Z,98867.81
2023-03-26T06:47:17.066Z,98874.72
2023-03-26T06:48:11.029Z,98876.28
2023-03-26T06:48:59.042Z,98872.53
2023-03-26T06:49:34.379Z,98886.34
2023-03-26T06:50:21.038Z,98867.13
2023-03-26T06:50:55.368Z,98844.09
2023-03-26T06:51:42.044Z,98885.69
2023-03-26T06:52:16.386Z,98888.75
2023-03-26T06:53:04.037Z,98897.16
2023-03-26T06:53:38.143Z,98858.34
2023-03-26T06:54:18.039Z,98871.88
2023-03-26T06:54:58.125Z,98859.72
2023-03-26T06:55:38.060Z,98895.88
2023-03-26T06:56:18.108Z,98882.41
2023-03-26T06:56:59.088Z,98889.88
2023-03-26T06:57:39.092Z,98899.00
2023-03-26T06:58:20.006Z,98883.16
2023-03-26T06:59:00.208Z,98889.03
2023-03-26T06:59:40.086Z,98874.28
2023-03-26T07:00:21.131Z,98901.69
2023-03-26T07:01:03.044Z,98906.75
2023-03-26T07:01:43.902Z,98890.66
2023-03-26T07:02:29.068Z,98907.75
2023-03-26T07:03:12.150Z,98900.38
2023-03-26T07:03:52.114Z,98881.56
2023-03-26T07:04:32.099Z,98884.34
2023-03-26T07:05:13.041Z,98890.91
2023-03-26T07:05:54.109Z,98879.63
2023-03-26T07:06:34.038Z,98887.16
2023-03-26T07:07:14.348Z,98896.94
2023-03-26T07:07:55.023Z,98883.75
2023-03-26T07:08:35.198Z,98911.56
2023-03-26T07:09:16.044Z,98913.78
2023-03-26T07:09:56.096Z,98881.31
2023-03-26T07:10:36.060Z,98917.78
2023-03-26T07:11:16.861Z,98895.78
2023-03-26T07:11:57.999Z,98905.47
2023-03-26T07:12:38.196Z,98923.34
2023-03-26T07:13:19.032Z,98919.34
2023-03-26T07:13:59.570Z,98920.28
2023-03-26T07:14:41.015Z,98915.81
2023-03-26T07:15:21.121Z,98915.50
2023-03-26T07:16:02.054Z,98927.34
2023-03-26T07:16:42.112Z,98907.84
2023-03-26T07:17:23.006Z,98899.03
2023-03-26T07:18:03.134Z,98908.81
2023-03-26T07:18:42.990Z,98913.19
2023-03-26T07:19:24.100Z,98932.63
2023-03-26T07:20:05.082Z,98921.53
2023-03-26T07:20:46.368Z,98909.81
2023-03-26T07:21:28.026Z,98921.41
2023-03-26T07:22:09.091Z,98908.09
2023-03-26T07:22:50.001Z,98921.09
2023-03-26T07:23:31.161Z,98940.19
2023-03-26T07:24:12.000Z,98914.31
2023-03-26T07:24:53.134Z,98926.34
2023-03-26T07:25:34.008Z,98930.13
2023-03-26T07:27:02.044Z,98930.25
2023-03-26T07:28:13.990Z,98931.34
2023-03-26T07:29:45.997Z,98940.53
2023-03-26T07:30:46.055Z,98941.06
2023-03-26T07:32:03.083Z,98905.59
2023-03-26T07:33:14.997Z,98917.75
2023-03-26T07:35:00.006Z,98925.59
2023-03-26T07:36:04.982Z,98928.69
2023-03-26T07:37:32.010Z,98916.91
2023-03-26T07:38:51.072Z,98902.28
2023-03-26T07:40:12.987Z,98936.06
2023-03-26T07:41:10.005Z,98929.97
2023-03-26T07:42:22.995Z,98919.66
2023-03-26T07:43:50.038Z,98938.00
2023-03-26T07:45:22.131Z,98931.38
2023-03-26T07:46:04.047Z,98925.16
2023-03-26T07:46:47.762Z,98947.94
2023-03-26T07:47:38.068Z,98929.59
2023-03-26T07:48:25.501Z,98901.66
2023-03-26T07:49:08.017Z,98930.91
2023-03-26T07:49:49.125Z,98924.78
2023-03-26T07:50:31.957Z,98935.28
2023-03-26T07:51:13.117Z,98918.63
2023-03-26T07:51:57.048Z,98933.47
2023-03-26T07:52:38.059Z,98941.06
2023-03-26T07:53:18.985Z,98940.31
2023-03-26T07:54:00.526Z,98941.78
2023-03-26T07:54:41.974Z,98957.16
2023-03-26T07:55:24.569Z,98945.78
2023-03-26T07:56:40.056Z,98931.22
2023-03-26T07:58:01.044Z,98950.53
2023-03-26T07:58:52.985Z,98913.56
2023-03-26T08:00:00.039Z,98924.13
2023-03-26T08:01:12.958Z,98956.16
2023-03-26T08:02:14.969Z,98924.34
2023-03-26T08:03:39.010Z,98939.03
2023-03-26T08:04:57.078Z,98925.72
2023-03-26T08:05:46.992Z,98931.63
2023-03-26T08:06:42.138Z,98933.59
2023-03-26T08:07:38.994Z,98939.16
2023-03-26T08:08:54.094Z,98928.59
2023-03-26T08:09:47.953Z,98923.69
2023-03-26T08:10:50.946Z,98937.47
2023-03-26T08:12:10.968Z,98915.06
2023-03-26T08:13:32.974Z,98910.94
2023-03-26T08:14:39.940Z,98920.63
2023-03-26T08:16:36.977Z,98924.38
2023-03-26T08:17:42.009Z,98926.97
2023-03-26T08:18:58.964Z,98910.53
2023-03-26T08:20:23.993Z,98920.91
2023-03-26T08:21:39.980Z,98924.13
2023-03-26T08:22:40.956Z,98925.63
2023-03-26T08:24:18.951Z,98921.41
2023-03-26T08:25:40.966Z,98933.13
2023-03-26T08:27:07.957Z,98919.25
2023-03-26T08:28:54.946Z,98908.59
2023-03-26T08:30:01.934Z,98899.94
2023-03-26T08:30:56.162Z,98897.53
2023-03-26T08:31:52.935Z,98910.41
2023-03-26T08:32:33.980Z,98931.09
2023-03-26T08:33:27.785Z,98919.47
2023-03-26T08:34:08.924Z,98943.91
2023-03-26T08:34:50.032Z,98898.56
2023-03-26T08:35:31.976Z,98930.50
2023-03-26T08:36:13.020Z,98936.19
2023-03-26T08:36:52.902Z,98915.59
2023-03-26T08:37:33.092Z,98909.56
2023-03-26T08:38:13.947Z,98918.63
2023-03-26T08:38:54.021Z,98935.00
2023-03-26T08:39:33.911Z,98910.47
2023-03-26T08:40:15.395Z,98924.91
2023-03-26T08:41:18.928Z,98932.94
2023-03-26T08:42:43.001Z,98928.13
2023-03-26T08:43:44.939Z,98932.22
2023-03-26T08:44:52.064Z,98906.75
2023-03-26T08:46:45.963Z,98918.69
2023-03-26T08:47:55.623Z,98929.09
2023-03-26T08:49:24.512Z,98927.38
2023-03-26T08:50:15.415Z,98910.84
2023-03-26T08:51:13.972Z,98919.91
2023-03-26T08:52:10.241Z,98917.72
2023-03-26T08:53:28.935Z,98917.69
2023-03-26T08:55:01.932Z,98925.75
2023-03-26T08:56:28.977Z,98919.19
2023-03-26T08:57:52.919Z,98936.91
2023-03-26T08:59:25.937Z,98917.03
2023-03-26T09:00:44.954Z,98924.28
2023-03-26T09:02:14.892Z,98914.19
2023-03-26T09:03:17.902Z,98909.50
2023-03-26T09:04:20.943Z,98911.84
2023-03-26T09:05:34.926Z,98899.84
2023-03-26T09:07:03.940Z,98908.63
2023-03-26T09:08:09.019Z,98896.38
2023-03-26T09:09:18.772Z,98908.19
2023-03-26T09:10:26.053Z,98905.59
2023-03-26T09:11:51.913Z,98894.44
2023-03-26T09:13:15.922Z,98885.50
2023-03-26T09:14:06.999Z,98917.31
2023-03-26T09:15:32.914Z,98913.94
2023-03-26T09:16:43.109Z,98910.34
2023-03-26T09:18:25.918Z,98935.34
2023-03-26T09:19:38.836Z,98920.16
2023-03-26T09:21:09.886Z,98918.25
2023-03-26T09:22:03.966Z,98927.00
2023-03-26T09:23:20.926Z,98909.50
2023-03-26T09:24:34.932Z,98915.31
2023-03-26T09:25:41.889Z,98913.88
2023-03-26T09:27:17.901Z,98898.50
2023-03-26T09:28:41.912Z,98915.44
2023-03-26T09:30:30.943Z,98913.28
2023-03-26T09:31:56.120Z,98930.66